sensor_id;sensor_type;location;lat;lon;timestamp;pressure;altitude;pressure_sealevel;temperature;humidity
55317;BME280;41178;48.956;8.130;2023-03-26T00:03:03;99156.03;;;10.10;48.75
55317;BME280;41178;48.956;8.130;2023-03-26T00:08:06;99225.31;;;10.40;48.70
55317;BME280;41178;48.956;8.130;2023-03-26T00:13:11;99208.41;;;13.40;43.92
55317;BME280;41178;48.956;8.130;2023-03-26T00:18:13;99250.81;;;14.20;42.65
55317;BME280;41178;48.956;8.130;2023-03-26T00:23:16;99240.22;;;14.81;41.24
55317;BME280;41178;48.956;8.130;2023-03-26T00:28:18;99241.41;;;15.64;40.12
55317;BME280;41178;48.956;8.130;2023-03-26T00:33:22;99213.81;;;15.50;40.16
55317;BME280;41178;48.956;8.130;2023-03-26T00:38:25;99213.84;;;14.89;40.94
55317;BME280;41178;48.956;8.130;2023-03-26T00:43:27;99153.38;;;13.10;43.09
55317;BME280;41178;48.956;8.130;2023-03-26T00:48:33;99174.22;;;14.59;41.73
55317;BME280;41178;48.956;8.130;2023-03-26T00:53:47;99182.16;;;15.03;41.18
55317;BME280;41178;48.956;8.130;2023-03-26T00:58:49;99167.19;;;15.07;40.66
55317;BME280;41178;48.956;8.130;2023-03-26T01:03:51;99174.81;;;13.99;42.63
55317;BME280;41178;48.956;8.130;2023-03-26T01:09:14;99152.41;;;13.37;42.37
55317;BME280;41178;48.956;8.130;2023-03-26T01:14:20;99140.22;;;14.03;41.33
55317;BME280;41178;48.956;8.130;2023-03-26T01:24:26;99156.09;;;14.85;41.03
55317;BME280;41178;48.956;8.130;2023-03-26T01:39:55;99046.03;;;11.68;45.56
55317;BME280;41178;48.956;8.130;2023-03-26T01:45:12;99071.34;;;11.52;46.58
55317;BME280;41178;48.956;8.130;2023-03-26T01:50:16;99060.88;;;13.75;43.71
55317;BME280;41178;48.956;8.130;2023-03-26T01:55:17;99038.88;;;14.64;41.62
55317;BME280;41178;48.956;8.130;2023-03-26T02:00:32;99032.69;;;14.64;41.54
55317;BME280;41178;48.956;8.130;2023-03-26T02:05:41;99069.38;;;12.65;44.33
55317;BME280;41178;48.956;8.130;2023-03-26T02:10:46;99039.38;;;13.32;43.79
55317;BME280;41178;48.956;8.130;2023-03-26T02:16:00;98987.69;;;14.52;41.40
55317;BME280;41178;48.956;8.130;2023-03-26T02:21:05;98909.09;;;10.98;47.53
55317;BME280;41178;48.956;8.130;2023-03-26T02:26:10;99040.38;;;12.80;44.48
55317;BME280;41178;48.956;8.130;2023-03-26T02:31:12;98951.47;;;14.25;41.29
55317;BME280;41178;48.956;8.130;2023-03-26T02:36:14;99009.84;;;14.06;42.21
55317;BME280;41178;48.956;8.130;2023-03-26T02:41:20;98936.03;;;11.30;47.17
55317;BME280;41178;48.956;8.130;2023-03-26T02:46:22;98997.63;;;12.47;45.78
55317;BME280;41178;48.956;8.130;2023-03-26T02:51:24;98948.41;;;13.72;43.14
55317;BME280;41178;48.956;8.130;2023-03-26T02:56:26;98951.97;;;13.29;43.59
55317;BME280;41178;48.956;8.130;2023-03-26T03:01:28;98926.34;;;14.97;41.55
55317;BME280;41178;48.956;8.130;2023-03-26T03:06:31;98908.41;;;14.25;41.88
55317;BME280;41178;48.956;8.130;2023-03-26T03:11:33;98898.22;;;13.96;41.88
55317;BME280;41178;48.956;8.130;2023-03-26T03:16:35;98907.06;;;12.92;43.91
55317;BME280;41178;48.956;8.130;2023-03-26T03:21:38;98909.19;;;14.13;41.96
55317;BME280;41178;48.956;8.130;2023-03-26T03:26:40;98917.47;;;13.63;43.10
55317;BME280;41178;48.956;8.130;2023-03-26T03:31:42;98916.59;;;13.51;43.62
55317;BME280;41178;48.956;8.130;2023-03-26T03:36:44;98882.38;;;15.72;40.67
55317;BME280;41178;48.956;8.130;2023-03-26T03:41:49;98889.44;;;14.19;42.73
55317;BME280;41178;48.956;8.130;2023-03-26T03:46:51;98855.66;;;13.93;42.29
55317;BME280;41178;48.956;8.130;2023-03-26T03:51:55;98856.00;;;13.18;43.71
55317;BME280;41178;48.956;8.130;2023-03-26T03:56:57;98810.53;;;14.37;42.88
55317;BME280;41178;48.956;8.130;2023-03-26T04:01:59;98827.56;;;12.91;44.37
55317;BME280;41178;48.956;8.130;2023-03-26T04:07:01;98810.19;;;12.76;44.92
55317;BME280;41178;48.956;8.130;2023-03-26T04:12:03;98774.81;;;14.18;42.61
55317;BME280;41178;48.956;8.130;2023-03-26T04:17:04;98777.63;;;14.47;42.59
55317;BME280;41178;48.956;8.130;2023-03-26T04:22:06;98803.38;;;13.10;45.03
55317;BME280;41178;48.956;8.130;2023-03-26T04:27:18;98668.69;;;11.20;47.52
55317;BME280;41178;48.956;8.130;2023-03-26T04:32:28;98694.66;;;11.19;48.25
55317;BME280;41178;48.956;8.130;2023-03-26T04:37:33;98711.91;;;11.23;47.16
55317;BME280;41178;48.956;8.130;2023-03-26T04:42:36;98770.44;;;11.90;46.37
55317;BME280;41178;48.956;8.130;2023-03-26T04:47:42;98738.50;;;12.58;45.43
55317;BME280;41178;48.956;8.130;2023-03-26T04:52:44;98748.75;;;12.42;46.46
55317;BME280;41178;48.956;8.130;2023-03-26T04:57:49;98693.09;;;13.65;44.32
55317;BME280;41178;48.956;8.130;2023-03-26T05:02:53;98699.56;;;11.22;47.88
55317;BME280;41178;48.956;8.130;2023-03-26T05:07:58;98730.78;;;11.99;46.28
55317;BME280;41178;48.956;8.130;2023-03-26T05:12:59;98667.91;;;11.44;46.79
55317;BME280;41178;48.956;8.130;2023-03-26T05:18:01;98716.84;;;12.34;45.79
55317;BME280;41178;48.956;8.130;2023-03-26T05:23:03;98670.28;;;12.47;45.92
55317;BME280;41178;48.956;8.130;2023-03-26T05:28:05;98631.75;;;13.98;43.49
55317;BME280;41178;48.956;8.130;2023-03-26T05:33:06;98646.50;;;14.07;43.25
55317;BME280;41178;48.956;8.130;2023-03-26T05:38:08;98604.41;;;15.11;41.96
55317;BME280;41178;48.956;8.130;2023-03-26T05:43:10;98588.63;;;11.37;48.01
55317;BME280;41178;48.956;8.130;2023-03-26T05:48:36;98629.97;;;12.53;45.47
55317;BME280;41178;48.956;8.130;2023-03-26T05:53:39;98588.25;;;14.53;43.09
55317;BME280;41178;48.956;8.130;2023-03-26T05:58:41;98605.59;;;12.55;45.28
55317;BME280;41178;48.956;8.130;2023-03-26T06:03:44;98630.69;;;13.52;44.10
55317;BME280;41178;48.956;8.130;2023-03-26T06:08:49;98601.78;;;12.93;44.32
55317;BME280;41178;48.956;8.130;2023-03-26T06:14:03;98605.91;;;13.50;43.55
55317;BME280;41178;48.956;8.130;2023-03-26T06:19:05;98632.47;;;13.27;45.19
55317;BME280;41178;48.956;8.130;2023-03-26T06:24:07;98537.47;;;15.03;42.54
55317;BME280;41178;48.956;8.130;2023-03-26T06:29:33;98585.84;;;13.10;45.39
55317;BME280;41178;48.956;8.130;2023-03-26T06:34:35;98575.31;;;14.38;43.85
55317;BME280;41178;48.956;8.130;2023-03-26T06:39:37;98563.19;;;15.61;42.42
55317;BME280;41178;48.956;8.130;2023-03-26T06:44:39;98516.59;;;14.35;42.76
55317;BME280;41178;48.956;8.130;2023-03-26T06:49:41;98537.63;;;15.13;43.39
55317;BME280;41178;48.956;8.130;2023-03-26T06:54:45;98551.69;;;13.53;44.97
55317;BME280;41178;48.956;8.130;2023-03-26T06:59:47;98552.28;;;12.59;47.71
55317;BME280;41178;48.956;8.130;2023-03-26T07:04:49;98544.56;;;13.46;46.57
55317;BME280;41178;48.956;8.130;2023-03-26T07:09:51;98528.63;;;14.45;45.13
55317;BME280;41178;48.956;8.130;2023-03-26T07:14:54;98488.66;;;13.84;45.82
55317;BME280;41178;48.956;8.130;2023-03-26T07:20:00;98473.94;;;14.44;44.62
55317;BME280;41178;48.956;8.130;2023-03-26T07:25:02;98492.34;;;13.42;47.65
55317;BME280;41178;48.956;8.130;2023-03-26T07:35:31;98432.66;;;11.78;50.51
55317;BME280;41178;48.956;8.130;2023-03-26T07:46:20;98437.53;;;13.96;46.24
55317;BME280;41178;48.956;8.130;2023-03-26T07:51:27;98292.94;;;11.07;50.46
55317;BME280;41178;48.956;8.130;2023-03-26T07:56:44;98471.59;;;12.72;49.20
55317;BME280;41178;48.956;8.130;2023-03-26T08:17:50;98401.41;;;10.66;53.21
55317;BME280;41178;48.956;8.130;2023-03-26T08:23:00;98351.28;;;9.59;55.78
55317;BME280;41178;48.956;8.130;2023-03-26T08:33:35;98496.09;;;12.33;50.71
55317;BME280;41178;48.956;8.130;2023-03-26T08:38:38;98437.91;;;10.86;53.40
55317;BME280;41178;48.956;8.130;2023-03-26T08:49:32;98489.56;;;11.12;54.17
55317;BME280;41178;48.956;8.130;2023-03-26T08:54:55;98415.25;;;9.93;55.31
55317;BME280;41178;48.956;8.130;2023-03-26T09:00:16;98488.72;;;11.36;53.13
55317;BME280;41178;48.956;8.130;2023-03-26T09:16:26;98422.31;;;10.76;54.10
55317;BME280;41178;48.956;8.130;2023-03-26T09:21:59;98486.44;;;11.95;53.30
55317;BME280;41178;48.956;8.130;2023-03-26T09:37:59;98455.50;;;13.19;51.16
55317;BME280;41178;48.956;8.130;2023-03-26T09:54:38;98445.38;;;12.86;49.66
55317;BME280;41178;48.956;8.130;2023-03-26T10:05:16;98484.66;;;12.38;48.09
55317;BME280;41178;48.956;8.130;2023-03-26T10:21:44;98503.75;;;13.26;44.74
55317;BME280;41178;48.956;8.130;2023-03-26T10:26:55;98467.31;;;12.95;43.75
55317;BME280;41178;48.956;8.130;2023-03-26T10:55:29;98489.34;;;10.88;42.96
55317;BME280;41178;48.956;8.130;2023-03-26T11:06:44;98540.88;;;9.73;45.27
55317;BME280;41178;48.956;8.130;2023-03-26T11:12:13;98626.00;;;10.93;43.71
55317;BME280;41178;48.956;8.130;2023-03-26T11:22:49;98625.16;;;11.31;43.73
55317;BME280;41178;48.956;8.130;2023-03-26T11:33:36;98598.09;;;11.39;43.57
55317;BME280;41178;48.956;8.130;2023-03-26T11:38:49;98586.31;;;12.09;43.51
55317;BME280;41178;48.956;8.130;2023-03-26T11:44:04;98557.38;;;11.56;43.35
55317;BME280;41178;48.956;8.130;2023-03-26T11:49:12;98570.72;;;11.81;43.44
55317;BME280;41178;48.956;8.130;2023-03-26T11:54:17;98557.28;;;12.85;42.71
55317;BME280;41178;48.956;8.130;2023-03-26T11:59:40;98543.09;;;13.08;42.13
55317;BME280;41178;48.956;8.130;2023-03-26T12:15:32;98530.19;;;13.64;41.59
55317;BME280;41178;48.956;8.130;2023-03-26T12:20:35;98527.81;;;13.21;40.73
55317;BME280;41178;48.956;8.130;2023-03-26T12:25:38;98533.09;;;13.51;41.20
55317;BME280;41178;48.956;8.130;2023-03-26T12:30:42;98523.22;;;12.86;40.83
55317;BME280;41178;48.956;8.130;2023-03-26T12:35:55;98546.53;;;14.39;39.78
55317;BME280;41178;48.956;8.130;2023-03-26T12:46:31;98507.38;;;12.96;40.30
55317;BME280;41178;48.956;8.130;2023-03-26T12:52:00;98476.25;;;12.34;39.68
55317;BME280;41178;48.956;8.130;2023-03-26T12:57:27;98502.91;;;12.48;40.40
55317;BME280;41178;48.956;8.130;2023-03-26T13:30:01;98442.53;;;11.96;41.15
55317;BME280;41178;48.956;8.130;2023-03-26T13:45:48;98441.09;;;10.06;47.56
55317;BME280;41178;48.956;8.130;2023-03-26T13:51:17;98265.19;;;8.40;52.67
55317;BME280;41178;48.956;8.130;2023-03-26T13:56:25;98339.19;;;7.91;55.33
55317;BME280;41178;48.956;8.130;2023-03-26T14:01:34;98390.47;;;8.14;54.77
55317;BME280;41178;48.956;8.130;2023-03-26T14:17:03;98523.69;;;9.35;52.73
55317;BME280;41178;48.956;8.130;2023-03-26T14:55:25;98520.41;;;10.12;52.88
55317;BME280;41178;48.956;8.130;2023-03-26T15:00:46;98507.56;;;10.34;51.40
55317;BME280;41178;48.956;8.130;2023-03-26T15:11:42;98490.00;;;11.09;49.56
55317;BME280;41178;48.956;8.130;2023-03-26T15:27:56;98563.41;;;10.04;51.90
55317;BME280;41178;48.956;8.130;2023-03-26T15:33:08;98551.19;;;9.56;53.62
55317;BME280;41178;48.956;8.130;2023-03-26T15:49:18;98367.44;;;7.86;56.19
55317;BME280;41178;48.956;8.130;2023-03-26T15:54:31;98446.44;;;8.40;53.96
55317;BME280;41178;48.956;8.130;2023-03-26T16:10:33;98531.63;;;11.04;50.43
55317;BME280;41178;48.956;8.130;2023-03-26T16:15:39;98597.19;;;9.65;52.86
55317;BME280;41178;48.956;8.130;2023-03-26T16:20:51;98581.88;;;10.64;51.12
55317;BME280;41178;48.956;8.130;2023-03-26T16:26:14;98586.59;;;10.75;51.09
55317;BME280;41178;48.956;8.130;2023-03-26T16:31:21;98581.47;;;11.31;50.18
55317;BME280;41178;48.956;8.130;2023-03-26T16:36:43;98595.41;;;11.39;50.11
55317;BME280;41178;48.956;8.130;2023-03-26T16:41:59;98641.72;;;10.31;52.12
55317;BME280;41178;48.956;8.130;2023-03-26T16:47:18;98628.56;;;10.68;50.80
55317;BME280;41178;48.956;8.130;2023-03-26T16:58:22;98607.97;;;10.82;51.03
55317;BME280;41178;48.956;8.130;2023-03-26T17:03:48;98618.03;;;10.80;50.18
55317;BME280;41178;48.956;8.130;2023-03-26T17:08:58;98654.34;;;11.71;49.18
55317;BME280;41178;48.956;8.130;2023-03-26T17:35:08;98639.50;;;9.61;52.85
55317;BME280;41178;48.956;8.130;2023-03-26T17:40:29;98659.88;;;9.62;53.43
55317;BME280;41178;48.956;8.130;2023-03-26T17:45:43;98619.53;;;11.07;49.93
55317;BME280;41178;48.956;8.130;2023-03-26T17:51:37;98626.56;;;9.51;53.12
55317;BME280;41178;48.956;8.130;2023-03-26T17:56:41;98620.63;;;9.43;52.64
55317;BME280;41178;48.956;8.130;2023-03-26T18:01:43;98647.75;;;11.35;49.29
55317;BME280;41178;48.956;8.130;2023-03-26T18:12:17;98680.41;;;10.08;50.69
55317;BME280;41178;48.956;8.130;2023-03-26T18:17:24;98656.09;;;10.23;49.99
55317;BME280;41178;48.956;8.130;2023-03-26T18:22:28;98670.34;;;9.44;50.86
55317;BME280;41178;48.956;8.130;2023-03-26T18:27:39;98692.53;;;9.57;51.28
55317;BME280;41178;48.956;8.130;2023-03-26T18:33:03;98709.38;;;9.78;51.34
55317;BME280;41178;48.956;8.130;2023-03-26T18:38:20;98574.41;;;8.40;53.58
55317;BME280;41178;48.956;8.130;2023-03-26T18:43:38;98368.13;;;6.76;55.08
55317;BME280;41178;48.956;8.130;2023-03-26T18:48:45;98668.69;;;9.63;51.33
55317;BME280;41178;48.956;8.130;2023-03-26T18:53:54;98672.31;;;10.35;50.85
55317;BME280;41178;48.956;8.130;2023-03-26T18:58:58;98490.81;;;7.23;55.71
55317;BME280;41178;48.956;8.130;2023-03-26T19:04:03;98676.00;;;10.41;50.17
55317;BME280;41178;48.956;8.130;2023-03-26T19:09:08;98724.34;;;9.52;51.43
55317;BME280;41178;48.956;8.130;2023-03-26T19:14:31;98694.50;;;10.49;50.21
55317;BME280;41178;48.956;8.130;2023-03-26T19:19:37;98703.47;;;8.88;52.50
55317;BME280;41178;48.956;8.130;2023-03-26T19:24:39;98532.09;;;7.47;54.77
55317;BME280;41178;48.956;8.130;2023-03-26T19:29:42;98657.72;;;8.49;52.73
55317;BME280;41178;48.956;8.130;2023-03-26T19:34:46;98684.09;;;9.67;51.50
55317;BME280;41178;48.956;8.130;2023-03-26T19:39:52;98682.69;;;9.98;50.69
55317;BME280;41178;48.956;8.130;2023-03-26T19:44:55;98685.94;;;8.37;52.94
55317;BME280;41178;48.956;8.130;2023-03-26T19:49:59;98639.34;;;7.91;55.14
55317;BME280;41178;48.956;8.130;2023-03-26T20:00:11;98685.13;;;9.53;52.40
55317;BME280;41178;48.956;8.130;2023-03-26T20:05:19;98687.53;;;9.28;51.95
55317;BME280;41178;48.956;8.130;2023-03-26T20:10:24;98667.91;;;8.32;53.76
55317;BME280;41178;48.956;8.130;2023-03-26T20:15:29;98672.16;;;10.17;50.96
55317;BME280;41178;48.956;8.130;2023-03-26T20:20:32;98673.13;;;10.42;49.63
55317;BME280;41178;48.956;8.130;2023-03-26T20:25:48;98687.78;;;10.20;51.05
55317;BME280;41178;48.956;8.130;2023-03-26T20:30:52;98681.84;;;10.04;50.75
55317;BME280;41178;48.956;8.130;2023-03-26T20:35:56;98692.53;;;9.57;50.91
55317;BME280;41178;48.956;8.130;2023-03-26T20:40:59;98694.56;;;10.22;51.12
55317;BME280;41178;48.956;8.130;2023-03-26T20:46:00;98711.63;;;10.35;49.71
55317;BME280;41178;48.956;8.130;2023-03-26T20:51:02;98708.75;;;10.36;49.58
55317;BME280;41178;48.956;8.130;2023-03-26T20:56:12;98715.97;;;9.69;51.20
55317;BME280;41178;48.956;8.130;2023-03-26T21:01:15;98675.38;;;8.57;52.75
55317;BME280;41178;48.956;8.130;2023-03-26T21:06:18;98719.06;;;9.92;50.89
55317;BME280;41178;48.956;8.130;2023-03-26T21:11:25;98765.88;;;9.75;51.80
55317;BME280;41178;48.956;8.130;2023-03-26T21:16:30;98730.25;;;9.28;51.42
55317;BME280;41178;48.956;8.130;2023-03-26T21:21:44;98784.97;;;9.52;52.35
55317;BME280;41178;48.956;8.130;2023-03-26T21:27:24;98767.38;;;10.11;51.52
55317;BME280;41178;48.956;8.130;2023-03-26T21:32:28;98782.81;;;9.89;52.45
55317;BME280;41178;48.956;8.130;2023-03-26T21:37:32;98770.88;;;9.85;51.73
55317;BME280;41178;48.956;8.130;2023-03-26T21:42:34;98777.78;;;9.59;52.99
55317;BME280;41178;48.956;8.130;2023-03-26T21:47:36;98776.84;;;10.20;51.58
55317;BME280;41178;48.956;8.130;2023-03-26T21:52:38;98761.38;;;8.65;54.22
55317;BME280;41178;48.956;8.130;2023-03-26T22:03:05;98793.69;;;10.14;53.51
55317;BME280;41178;48.956;8.130;2023-03-26T22:08:30;98803.63;;;8.90;54.34
55317;BME280;41178;48.956;8.130;2023-03-26T22:13:34;98810.66;;;8.98;53.63
55317;BME280;41178;48.956;8.130;2023-03-26T22:18:36;98813.19;;;9.19;53.16
55317;BME280;41178;48.956;8.130;2023-03-26T22:23:37;98801.81;;;9.52;52.28
55317;BME280;41178;48.956;8.130;2023-03-26T22:28:39;98857.88;;;10.47;50.87
55317;BME280;41178;48.956;8.130;2023-03-26T22:33:41;98848.88;;;9.67;51.47
55317;BME280;41178;48.956;8.130;2023-03-26T22:38:43;98886.66;;;10.32;50.30
55317;BME280;41178;48.956;8.130;2023-03-26T22:43:45;98883.66;;;9.80;51.06
55317;BME280;41178;48.956;8.130;2023-03-26T22:48:47;98921.22;;;10.27;51.14
55317;BME280;41178;48.956;8.130;2023-03-26T22:53:48;98910.00;;;9.00;52.52
55317;BME280;41178;48.956;8.130;2023-03-26T22:58:50;98918.97;;;8.92;52.77
55317;BME280;41178;48.956;8.130;2023-03-26T23:03:53;98873.84;;;8.19;54.40
55317;BME280;41178;48.956;8.130;2023-03-26T23:08:54;98940.03;;;9.44;52.15
55317;BME280;41178;48.956;8.130;2023-03-26T23:13:57;98957.94;;;8.87;52.37
55317;BME280;41178;48.956;8.130;2023-03-26T23:18:59;98925.56;;;8.25;54.13
55317;BME280;41178;48.956;8.130;2023-03-26T23:24:01;98779.44;;;6.91;56.06
55317;BME280;41178;48.956;8.130;2023-03-26T23:29:04;98882.13;;;7.36;55.62
55317;BME280;41178;48.956;8.130;2023-03-26T23:34:05;98966.91;;;7.99;54.88
55317;BME280;41178;48.956;8.130;2023-03-26T23:39:07;98924.78;;;7.58;54.34
55317;BME280;41178;48.956;8.130;2023-03-26T23:44:09;98894.91;;;7.11;55.67
55317;BME280;41178;48.956;8.130;2023-03-26T23:49:14;98963.44;;;7.54;54.95
55317;BME280;41178;48.956;8.130;2023-03-26T23:54:16;99021.56;;;7.95;53.83
55317;BME280;41178;48.956;8.130;2023-03-26T23:59:19;99065.56;;;8.21;53.77
